N2193G MDCZ-SVEN
Flight info
| Callsign | N2193G |
|---|---|
| Flight time | N/A |
| Altitude | |
| Route | DCT |
| Aircraft | AEST |
Departure
| Time | 2026-04-25 20:29 |
|---|---|
| Airport | Constanza - Expedición 14 de Junio National Airport (MDCZ) |
Arrival
| Time | N/A |
|---|---|
| Airport | SVEN |
| Time | Latitude | Longitude | Altitude | Speed | Heading |
|---|---|---|---|---|---|
| 2026-04-25 17:41 | 9.09901 | -73.22895 | 1473 ft | 0 kts | 138° |
| 2026-04-25 17:42 | 9.09900 | -73.22894 | 1473 ft | 3 kts | 138° |
| 2026-04-25 17:42 | 9.09671 | -73.22662 | 1470 ft | 81 kts | 134° |
| 2026-04-25 17:43 | 9.09198 | -73.22188 | 1584 ft | 109 kts | 132° |
| 2026-04-25 17:43 | 9.08743 | -73.21530 | 1933 ft | 116 kts | 120° |
| 2026-04-25 17:43 | 9.08336 | -73.20771 | 2249 ft | 124 kts | 113° |
| 2026-04-25 17:43 | 9.08059 | -73.19962 | 2560 ft | 126 kts | 95° |
| 2026-04-25 17:44 | 9.08260 | -73.19081 | 2777 ft | 131 kts | 57° |
| 2026-04-25 17:44 | 9.08915 | -73.18458 | 3028 ft | 137 kts | 29° |
| 2026-04-25 17:44 | 9.09809 | -73.18044 | 3174 ft | 146 kts | 24° |
| 2026-04-25 17:44 | 9.10744 | -73.17608 | 3391 ft | 149 kts | 24° |
| 2026-04-25 17:45 | 9.11697 | -73.17168 | 3623 ft | 151 kts | 24° |
| 2026-04-25 17:45 | 9.12021 | -73.17018 | 3704 ft | 152 kts | 24° |
| 2026-04-25 17:45 | 9.13639 | -73.16256 | 3987 ft | 163 kts | 24° |
| 2026-04-25 17:45 | 9.14741 | -73.15818 | 3991 ft | 177 kts | 19° |
| 2026-04-25 17:46 | 9.15941 | -73.15399 | 3986 ft | 188 kts | 18° |
| 2026-04-25 17:46 | 9.17202 | -73.14958 | 3981 ft | 195 kts | 18° |
| 2026-04-25 17:46 | 9.18500 | -73.14506 | 4056 ft | 194 kts | 18° |
| 2026-04-25 17:46 | 9.19707 | -73.14085 | 4437 ft | 180 kts | 18° |
| 2026-04-25 17:47 | 9.20863 | -73.13675 | 4705 ft | 173 kts | 18° |
| 2026-04-25 17:47 | 9.21991 | -73.13266 | 4925 ft | 171 kts | 18° |
| 2026-04-25 17:47 | 9.23108 | -73.12861 | 5139 ft | 170 kts | 18° |
| 2026-04-25 17:47 | 9.24217 | -73.12455 | 5356 ft | 169 kts | 18° |
| 2026-04-25 17:48 | 9.26414 | -73.11645 | 5740 ft | 167 kts | 18° |
| 2026-04-25 17:48 | 9.27506 | -73.11250 | 5938 ft | 166 kts | 18° |
| 2026-04-25 17:48 | 9.28590 | -73.10849 | 6117 ft | 166 kts | 18° |
| 2026-04-25 17:49 | 9.29656 | -73.10447 | 6291 ft | 166 kts | 18° |
| 2026-04-25 17:49 | 9.30733 | -73.10035 | 6451 ft | 165 kts | 18° |
| 2026-04-25 17:49 | 9.31808 | -73.09632 | 6620 ft | 165 kts | 18° |
| 2026-04-25 17:49 | 9.32883 | -73.09226 | 6778 ft | 165 kts | 18° |
| 2026-04-25 17:50 | 9.33954 | -73.08817 | 6944 ft | 165 kts | 18° |
| 2026-04-25 17:50 | 9.35033 | -73.08410 | 7089 ft | 166 kts | 18° |
| 2026-04-25 17:50 | 9.36116 | -73.08006 | 7238 ft | 166 kts | 18° |
| 2026-04-25 17:50 | 9.37202 | -73.07599 | 7395 ft | 167 kts | 18° |
| 2026-04-25 17:51 | 9.38272 | -73.07189 | 7533 ft | 167 kts | 18° |
| 2026-04-25 17:51 | 9.39361 | -73.06781 | 7682 ft | 167 kts | 18° |
| 2026-04-25 17:51 | 9.40452 | -73.06381 | 7815 ft | 167 kts | 18° |
| 2026-04-25 17:51 | 9.41544 | -73.05972 | 7949 ft | 167 kts | 18° |
| 2026-04-25 17:52 | 9.42635 | -73.05563 | 8074 ft | 167 kts | 18° |
| 2026-04-25 17:52 | 9.43005 | -73.05426 | 8120 ft | 168 kts | 18° |
| 2026-04-25 17:52 | 9.44831 | -73.04751 | 8321 ft | 169 kts | 18° |
| 2026-04-25 17:52 | 9.45931 | -73.04340 | 8463 ft | 169 kts | 18° |
| 2026-04-25 17:53 | 9.47040 | -73.03923 | 8589 ft | 170 kts | 18° |
| 2026-04-25 17:53 | 9.48132 | -73.03517 | 8710 ft | 169 kts | 18° |
| 2026-04-25 17:53 | 9.49242 | -73.03108 | 8813 ft | 170 kts | 18° |
| 2026-04-25 17:53 | 9.50352 | -73.02695 | 8935 ft | 170 kts | 18° |
| 2026-04-25 17:54 | 9.51460 | -73.02275 | 9051 ft | 170 kts | 18° |
| 2026-04-25 17:54 | 9.52576 | -73.01858 | 9157 ft | 171 kts | 18° |
| 2026-04-25 17:54 | 9.53693 | -73.01444 | 9265 ft | 171 kts | 18° |
| 2026-04-25 17:54 | 9.54808 | -73.01027 | 9369 ft | 171 kts | 18° |
| 2026-04-25 17:55 | 9.55896 | -73.00534 | 9467 ft | 172 kts | 24° |
| 2026-04-25 17:55 | 9.56948 | -73.00014 | 9577 ft | 170 kts | 24° |
| 2026-04-25 17:55 | 9.58009 | -72.99485 | 9693 ft | 170 kts | 24° |
| 2026-04-25 17:55 | 9.59074 | -72.98946 | 9787 ft | 171 kts | 24° |
| 2026-04-25 17:56 | 9.60139 | -72.98411 | 9885 ft | 171 kts | 24° |
| 2026-04-25 17:56 | 9.61203 | -72.97883 | 9965 ft | 170 kts | 24° |
| 2026-04-25 17:56 | 9.62269 | -72.97350 | 10014 ft | 174 kts | 24° |
| 2026-04-25 17:56 | 9.63379 | -72.96790 | 10009 ft | 183 kts | 24° |
| 2026-04-25 17:57 | 9.64544 | -72.96210 | 9992 ft | 190 kts | 24° |
| 2026-04-25 17:57 | 9.65755 | -72.95616 | 9988 ft | 196 kts | 24° |
| 2026-04-25 17:57 | 9.66977 | -72.95011 | 9984 ft | 200 kts | 24° |
| 2026-04-25 17:57 | 9.67400 | -72.94804 | 9982 ft | 201 kts | 24° |
| 2026-04-25 17:58 | 9.69523 | -72.93789 | 9992 ft | 205 kts | 24° |
| 2026-04-25 17:58 | 9.70816 | -72.93172 | 9993 ft | 207 kts | 24° |
| 2026-04-25 17:58 | 9.72122 | -72.92549 | 9990 ft | 208 kts | 24° |
| 2026-04-25 17:58 | 9.73431 | -72.91924 | 9990 ft | 208 kts | 24° |
| 2026-04-25 17:59 | 9.74744 | -72.91298 | 9995 ft | 209 kts | 24° |
| 2026-04-25 17:59 | 9.76059 | -72.90671 | 9994 ft | 209 kts | 24° |
| 2026-04-25 17:59 | 9.77378 | -72.90035 | 9991 ft | 210 kts | 24° |
| 2026-04-25 17:59 | 9.78680 | -72.89404 | 9991 ft | 210 kts | 24° |
| 2026-04-25 18:00 | 9.79998 | -72.88760 | 9991 ft | 211 kts | 24° |
| 2026-04-25 18:00 | 9.81317 | -72.88114 | 9991 ft | 209 kts | 24° |
| 2026-04-25 18:00 | 9.82631 | -72.87479 | 9993 ft | 210 kts | 24° |
| 2026-04-25 18:00 | 9.83951 | -72.86832 | 10008 ft | 211 kts | 24° |
| 2026-04-25 18:01 | 9.85272 | -72.86186 | 10006 ft | 211 kts | 24° |
| 2026-04-25 18:01 | 9.86588 | -72.85550 | 10008 ft | 209 kts | 24° |
| 2026-04-25 18:01 | 9.87903 | -72.84915 | 10004 ft | 210 kts | 24° |
| 2026-04-25 18:01 | 9.89219 | -72.84270 | 10005 ft | 210 kts | 24° |
| 2026-04-25 18:02 | 9.90521 | -72.83640 | 10008 ft | 210 kts | 24° |
| 2026-04-25 18:02 | 9.91840 | -72.82999 | 10005 ft | 210 kts | 24° |
| 2026-04-25 18:02 | 9.93158 | -72.82354 | 10008 ft | 210 kts | 24° |
| 2026-04-25 18:02 | 9.94476 | -72.81714 | 10008 ft | 210 kts | 24° |
| 2026-04-25 18:03 | 9.95801 | -72.81073 | 9981 ft | 211 kts | 24° |
| 2026-04-25 18:03 | 9.97125 | -72.80425 | 10003 ft | 211 kts | 24° |
| 2026-04-25 18:03 | 9.98444 | -72.79785 | 10007 ft | 210 kts | 24° |
| 2026-04-25 18:03 | 9.99760 | -72.79148 | 10009 ft | 210 kts | 24° |
| 2026-04-25 18:04 | 10.01078 | -72.78508 | 10007 ft | 211 kts | 24° |
| 2026-04-25 18:04 | 10.02382 | -72.77871 | 10005 ft | 211 kts | 24° |
| 2026-04-25 18:04 | 10.03702 | -72.77232 | 10002 ft | 211 kts | 24° |
| 2026-04-25 18:04 | 10.05022 | -72.76590 | 10007 ft | 211 kts | 24° |
| 2026-04-25 18:05 | 10.06343 | -72.75944 | 10005 ft | 211 kts | 24° |
| 2026-04-25 18:05 | 10.07666 | -72.75305 | 10008 ft | 210 kts | 24° |
| 2026-04-25 18:05 | 10.08989 | -72.74662 | 10005 ft | 212 kts | 24° |
| 2026-04-25 18:05 | 10.10311 | -72.74013 | 10003 ft | 210 kts | 24° |
| 2026-04-25 18:06 | 10.11630 | -72.73375 | 10017 ft | 209 kts | 24° |
| 2026-04-25 18:06 | 10.12949 | -72.72741 | 10022 ft | 210 kts | 24° |
| 2026-04-25 18:06 | 10.14260 | -72.72102 | 10017 ft | 212 kts | 24° |
| 2026-04-25 18:06 | 10.15590 | -72.71459 | 10018 ft | 211 kts | 24° |
| 2026-04-25 18:07 | 10.16920 | -72.70818 | 10017 ft | 211 kts | 24° |
| 2026-04-25 18:07 | 10.18251 | -72.70173 | 10017 ft | 213 kts | 24° |
| 2026-04-25 18:07 | 10.19584 | -72.69530 | 10023 ft | 212 kts | 24° |
| 2026-04-25 18:07 | 10.20915 | -72.68891 | 10019 ft | 212 kts | 24° |
| 2026-04-25 18:08 | 10.22246 | -72.68242 | 10022 ft | 213 kts | 24° |
| 2026-04-25 18:08 | 10.23577 | -72.67593 | 10019 ft | 212 kts | 24° |
| 2026-04-25 18:08 | 10.24916 | -72.66951 | 9990 ft | 213 kts | 24° |
| 2026-04-25 18:08 | 10.26234 | -72.66313 | 9993 ft | 213 kts | 24° |
| 2026-04-25 18:09 | 10.27567 | -72.65663 | 9991 ft | 212 kts | 24° |
| 2026-04-25 18:09 | 10.28892 | -72.65022 | 9993 ft | 211 kts | 24° |
| 2026-04-25 18:09 | 10.30218 | -72.64382 | 9995 ft | 211 kts | 24° |
| 2026-04-25 18:09 | 10.30667 | -72.64164 | 9996 ft | 212 kts | 24° |
| 2026-04-25 18:10 | 10.32883 | -72.63097 | 9991 ft | 212 kts | 24° |
| 2026-04-25 18:10 | 10.34217 | -72.62453 | 9989 ft | 213 kts | 24° |
| 2026-04-25 18:10 | 10.35532 | -72.61812 | 9990 ft | 211 kts | 24° |
| 2026-04-25 18:10 | 10.36857 | -72.61172 | 9993 ft | 211 kts | 24° |
| 2026-04-25 18:11 | 10.38186 | -72.60534 | 9996 ft | 212 kts | 24° |
| 2026-04-25 18:11 | 10.39522 | -72.59895 | 9997 ft | 212 kts | 24° |
| 2026-04-25 18:11 | 10.40868 | -72.59279 | 9993 ft | 212 kts | 24° |
| 2026-04-25 18:11 | 10.42211 | -72.58670 | 9994 ft | 212 kts | 24° |
| 2026-04-25 18:12 | 10.43558 | -72.58059 | 9996 ft | 212 kts | 24° |
| 2026-04-25 18:12 | 10.44904 | -72.57450 | 9994 ft | 212 kts | 24° |
| 2026-04-25 18:12 | 10.46245 | -72.56843 | 9994 ft | 211 kts | 24° |
| 2026-04-25 18:12 | 10.47590 | -72.56234 | 9993 ft | 212 kts | 24° |
| 2026-04-25 18:13 | 10.48915 | -72.55633 | 9990 ft | 212 kts | 24° |
| 2026-04-25 18:13 | 10.50258 | -72.55026 | 9991 ft | 211 kts | 24° |
| 2026-04-25 18:13 | 10.51602 | -72.54417 | 9989 ft | 212 kts | 24° |
| 2026-04-25 18:14 | 10.54291 | -72.53199 | 9962 ft | 211 kts | 24° |
| 2026-04-25 18:14 | 10.55636 | -72.52593 | 9963 ft | 212 kts | 24° |
| 2026-04-25 18:14 | 10.56983 | -72.51984 | 9964 ft | 212 kts | 24° |
| 2026-04-25 18:14 | 10.58328 | -72.51377 | 9963 ft | 211 kts | 24° |
| 2026-04-25 18:15 | 10.59654 | -72.50778 | 9965 ft | 212 kts | 24° |
| 2026-04-25 18:15 | 10.61000 | -72.50169 | 9964 ft | 212 kts | 24° |
| 2026-04-25 18:15 | 10.62347 | -72.49561 | 9964 ft | 212 kts | 24° |
| 2026-04-25 18:15 | 10.63691 | -72.48955 | 9964 ft | 212 kts | 24° |
| 2026-04-25 18:16 | 10.65040 | -72.48346 | 9961 ft | 213 kts | 24° |
| 2026-04-25 18:16 | 10.66392 | -72.47737 | 9961 ft | 213 kts | 24° |
| 2026-04-25 18:16 | 10.69095 | -72.46522 | 9961 ft | 213 kts | 24° |
| 2026-04-25 18:17 | 10.70428 | -72.45923 | 9961 ft | 212 kts | 24° |
| 2026-04-25 18:17 | 10.71776 | -72.45317 | 9962 ft | 211 kts | 24° |
| 2026-04-25 18:17 | 10.73122 | -72.44710 | 9961 ft | 212 kts | 24° |
| 2026-04-25 18:17 | 10.74469 | -72.44104 | 9962 ft | 211 kts | 24° |
| 2026-04-25 18:18 | 10.75815 | -72.43498 | 9960 ft | 211 kts | 24° |
| 2026-04-25 18:18 | 10.77160 | -72.42894 | 9961 ft | 211 kts | 24° |
| 2026-04-25 18:18 | 10.78507 | -72.42289 | 9965 ft | 212 kts | 24° |
| 2026-04-25 18:18 | 10.79854 | -72.41681 | 9954 ft | 212 kts | 24° |
| 2026-04-25 18:19 | 10.81183 | -72.41079 | 9954 ft | 212 kts | 24° |
| 2026-04-25 18:19 | 10.82534 | -72.40467 | 9956 ft | 213 kts | 24° |
| 2026-04-25 18:19 | 10.83883 | -72.39856 | 9954 ft | 212 kts | 24° |
| 2026-04-25 18:19 | 10.85229 | -72.39247 | 9942 ft | 212 kts | 24° |
| 2026-04-25 18:20 | 10.86578 | -72.38637 | 9944 ft | 212 kts | 24° |
| 2026-04-25 18:20 | 10.87929 | -72.38027 | 9942 ft | 213 kts | 24° |
| 2026-04-25 18:20 | 10.89279 | -72.37417 | 9942 ft | 212 kts | 24° |
| 2026-04-25 18:20 | 10.90631 | -72.36807 | 9941 ft | 213 kts | 24° |
| 2026-04-25 18:21 | 10.91982 | -72.36195 | 9936 ft | 212 kts | 24° |
| 2026-04-25 18:21 | 10.93330 | -72.35586 | 9939 ft | 212 kts | 24° |
| 2026-04-25 18:21 | 10.94662 | -72.34985 | 9939 ft | 212 kts | 24° |
| 2026-04-25 18:21 | 10.96015 | -72.34374 | 9939 ft | 212 kts | 24° |
| 2026-04-25 18:22 | 10.97366 | -72.33764 | 9941 ft | 212 kts | 24° |
| 2026-04-25 18:22 | 10.97821 | -72.33559 | 9941 ft | 212 kts | 24° |
| 2026-04-25 18:22 | 11.00070 | -72.32543 | 9939 ft | 213 kts | 24° |
| 2026-04-25 18:22 | 11.01421 | -72.31934 | 9939 ft | 212 kts | 24° |
| 2026-04-25 18:23 | 11.02770 | -72.31325 | 9938 ft | 212 kts | 24° |
| 2026-04-25 18:23 | 11.04122 | -72.30715 | 9938 ft | 213 kts | 24° |
| 2026-04-25 18:23 | 11.05473 | -72.30105 | 9939 ft | 212 kts | 24° |
| 2026-04-25 18:23 | 11.06806 | -72.29505 | 9934 ft | 212 kts | 24° |
| 2026-04-25 18:24 | 11.08159 | -72.28895 | 9931 ft | 213 kts | 24° |
| 2026-04-25 18:24 | 11.09514 | -72.28284 | 9929 ft | 213 kts | 24° |
| 2026-04-25 18:24 | 11.10864 | -72.27676 | 9931 ft | 213 kts | 24° |
| 2026-04-25 18:24 | 11.12217 | -72.27065 | 9930 ft | 213 kts | 24° |
| 2026-04-25 18:25 | 11.13572 | -72.26455 | 9933 ft | 213 kts | 24° |
| 2026-04-25 18:25 | 11.14927 | -72.25846 | 9933 ft | 213 kts | 24° |
| 2026-04-25 18:25 | 11.16287 | -72.25238 | 9927 ft | 214 kts | 24° |
| 2026-04-25 18:25 | 11.17637 | -72.24643 | 9926 ft | 214 kts | 24° |
| 2026-04-25 18:26 | 11.19002 | -72.24043 | 9928 ft | 213 kts | 24° |
| 2026-04-25 18:26 | 11.20367 | -72.23443 | 9926 ft | 214 kts | 24° |
| 2026-04-25 18:26 | 11.21739 | -72.22841 | 9926 ft | 214 kts | 24° |
| 2026-04-25 18:26 | 11.23105 | -72.22240 | 9925 ft | 213 kts | 24° |
| 2026-04-25 18:27 | 11.24471 | -72.21640 | 9921 ft | 214 kts | 24° |
| 2026-04-25 18:27 | 11.25840 | -72.21040 | 9923 ft | 214 kts | 24° |
| 2026-04-25 18:27 | 11.27208 | -72.20440 | 9922 ft | 213 kts | 24° |
| 2026-04-25 18:27 | 11.28571 | -72.19841 | 9923 ft | 214 kts | 24° |
| 2026-04-25 18:28 | 11.29922 | -72.19247 | 9928 ft | 215 kts | 24° |
| 2026-04-25 18:28 | 11.31290 | -72.18646 | 9926 ft | 214 kts | 24° |
| 2026-04-25 18:28 | 11.32655 | -72.18047 | 9925 ft | 214 kts | 24° |
| 2026-04-25 18:29 | 11.35395 | -72.16849 | 9921 ft | 214 kts | 24° |
| 2026-04-25 18:29 | 11.36757 | -72.16249 | 9924 ft | 214 kts | 24° |
| 2026-04-25 18:30 | 11.40856 | -72.14452 | 9923 ft | 213 kts | 24° |
| 2026-04-25 18:30 | 11.42220 | -72.13853 | 9923 ft | 214 kts | 24° |
| 2026-04-25 18:30 | 11.43572 | -72.13261 | 9923 ft | 214 kts | 24° |
| 2026-04-25 18:30 | 11.44941 | -72.12662 | 9923 ft | 213 kts | 24° |
| 2026-04-25 18:31 | 11.46306 | -72.12064 | 9925 ft | 214 kts | 24° |
| 2026-04-25 18:31 | 11.47678 | -72.11466 | 9920 ft | 214 kts | 24° |
| 2026-04-25 18:31 | 11.49044 | -72.10870 | 9921 ft | 213 kts | 24° |
| 2026-04-25 18:31 | 11.50406 | -72.10274 | 9921 ft | 213 kts | 24° |
| 2026-04-25 18:32 | 11.51773 | -72.09679 | 9918 ft | 213 kts | 23° |
| 2026-04-25 18:32 | 11.53137 | -72.09083 | 9919 ft | 213 kts | 24° |
| 2026-04-25 18:32 | 11.54497 | -72.08487 | 9918 ft | 213 kts | 24° |
| 2026-04-25 18:32 | 11.55845 | -72.07900 | 9919 ft | 214 kts | 24° |
| 2026-04-25 18:33 | 11.57211 | -72.07304 | 9915 ft | 213 kts | 24° |
| 2026-04-25 18:33 | 11.58572 | -72.06710 | 9918 ft | 213 kts | 24° |
| 2026-04-25 18:33 | 11.59937 | -72.06113 | 9918 ft | 214 kts | 24° |
| 2026-04-25 18:33 | 11.61305 | -72.05516 | 9917 ft | 214 kts | 24° |
| 2026-04-25 18:34 | 11.62667 | -72.04921 | 9916 ft | 213 kts | 24° |
| 2026-04-25 18:34 | 11.64032 | -72.04326 | 9914 ft | 214 kts | 24° |
| 2026-04-25 18:34 | 11.65400 | -72.03731 | 9915 ft | 214 kts | 24° |
| 2026-04-25 18:34 | 11.66743 | -72.03144 | 9915 ft | 213 kts | 24° |
| 2026-04-25 18:35 | 11.68107 | -72.02549 | 9918 ft | 214 kts | 24° |
| 2026-04-25 18:35 | 11.69475 | -72.01953 | 9918 ft | 213 kts | 24° |
| 2026-04-25 18:35 | 11.70838 | -72.01358 | 9919 ft | 212 kts | 24° |
| 2026-04-25 18:35 | 11.72200 | -72.00764 | 9918 ft | 213 kts | 23° |
| 2026-04-25 18:36 | 11.73571 | -72.00168 | 9917 ft | 214 kts | 23° |
| 2026-04-25 18:36 | 11.74937 | -71.99573 | 9913 ft | 213 kts | 23° |
| 2026-04-25 18:36 | 11.76302 | -71.98978 | 9913 ft | 213 kts | 24° |
| 2026-04-25 18:36 | 11.77653 | -71.98392 | 9913 ft | 214 kts | 24° |
| 2026-04-25 18:37 | 11.79020 | -71.97797 | 9914 ft | 213 kts | 24° |
| 2026-04-25 18:37 | 11.80382 | -71.97202 | 9915 ft | 213 kts | 24° |
| 2026-04-25 18:37 | 11.81748 | -71.96607 | 9919 ft | 214 kts | 23° |
| 2026-04-25 18:37 | 11.83120 | -71.96004 | 9916 ft | 215 kts | 24° |
| 2026-04-25 18:38 | 11.84488 | -71.95399 | 9914 ft | 215 kts | 24° |
| 2026-04-25 18:38 | 11.85862 | -71.94792 | 9913 ft | 216 kts | 23° |
| 2026-04-25 18:38 | 11.87235 | -71.94186 | 9911 ft | 215 kts | 24° |
| 2026-04-25 18:38 | 11.88604 | -71.93580 | 9907 ft | 215 kts | 24° |
| 2026-04-25 18:39 | 11.89955 | -71.92981 | 9908 ft | 215 kts | 24° |
| 2026-04-25 18:39 | 11.91329 | -71.92374 | 9909 ft | 215 kts | 23° |
| 2026-04-25 18:39 | 11.92696 | -71.91772 | 9911 ft | 214 kts | 23° |
| 2026-04-25 18:39 | 11.94068 | -71.91165 | 9910 ft | 215 kts | 23° |
| 2026-04-25 18:40 | 11.95439 | -71.90559 | 9907 ft | 215 kts | 24° |
| 2026-04-25 18:40 | 11.96807 | -71.89955 | 9907 ft | 213 kts | 23° |
| 2026-04-25 18:40 | 11.98177 | -71.89348 | 9906 ft | 215 kts | 23° |
| 2026-04-25 18:40 | 11.99551 | -71.88740 | 9907 ft | 215 kts | 23° |
| 2026-04-25 18:41 | 12.00901 | -71.88142 | 9907 ft | 214 kts | 24° |
| 2026-04-25 18:41 | 12.02271 | -71.87537 | 9905 ft | 215 kts | 23° |
| 2026-04-25 18:41 | 12.03646 | -71.86931 | 9903 ft | 215 kts | 23° |
| 2026-04-25 18:41 | 12.05018 | -71.86325 | 9903 ft | 214 kts | 23° |
| 2026-04-25 18:42 | 12.06387 | -71.85721 | 9905 ft | 215 kts | 23° |
| 2026-04-25 18:42 | 12.06851 | -71.85516 | 9904 ft | 215 kts | 23° |
| 2026-04-25 18:42 | 12.09137 | -71.84508 | 9904 ft | 215 kts | 23° |
| 2026-04-25 18:42 | 12.10488 | -71.83912 | 9904 ft | 215 kts | 23° |
| 2026-04-25 18:43 | 12.11866 | -71.83306 | 9904 ft | 216 kts | 23° |
| 2026-04-25 18:43 | 12.13243 | -71.82699 | 9905 ft | 215 kts | 24° |
| 2026-04-25 18:43 | 12.14615 | -71.82093 | 9904 ft | 215 kts | 23° |
| 2026-04-25 18:43 | 12.15989 | -71.81484 | 9903 ft | 217 kts | 24° |
| 2026-04-25 18:44 | 12.17365 | -71.80857 | 9909 ft | 217 kts | 23° |
| 2026-04-25 18:44 | 12.18736 | -71.80231 | 9907 ft | 217 kts | 23° |
| 2026-04-25 18:44 | 12.20113 | -71.79600 | 9905 ft | 217 kts | 23° |
| 2026-04-25 18:44 | 12.21488 | -71.78970 | 9906 ft | 217 kts | 23° |
| 2026-04-25 18:45 | 12.22842 | -71.78353 | 9902 ft | 215 kts | 23° |
| 2026-04-25 18:45 | 12.24213 | -71.77726 | 9904 ft | 217 kts | 23° |
| 2026-04-25 18:45 | 12.25587 | -71.77095 | 9904 ft | 216 kts | 23° |
| 2026-04-25 18:45 | 12.26954 | -71.76472 | 9903 ft | 215 kts | 23° |
| 2026-04-25 18:46 | 12.28326 | -71.75846 | 9907 ft | 217 kts | 23° |
| 2026-04-25 18:46 | 12.29703 | -71.75215 | 9907 ft | 216 kts | 23° |
| 2026-04-25 18:46 | 12.31076 | -71.74592 | 9906 ft | 216 kts | 23° |
| 2026-04-25 18:46 | 12.32452 | -71.73966 | 9905 ft | 217 kts | 23° |
| 2026-04-25 18:47 | 12.33827 | -71.73338 | 9901 ft | 216 kts | 23° |
| 2026-04-25 18:47 | 12.35199 | -71.72714 | 9903 ft | 215 kts | 23° |
| 2026-04-25 18:47 | 12.36550 | -71.72097 | 9904 ft | 216 kts | 23° |
| 2026-04-25 18:47 | 12.37928 | -71.71466 | 9904 ft | 217 kts | 23° |
| 2026-04-25 18:48 | 12.39302 | -71.70838 | 9905 ft | 216 kts | 23° |
| 2026-04-25 18:48 | 12.40674 | -71.70214 | 9907 ft | 216 kts | 23° |
| 2026-04-25 18:48 | 12.42050 | -71.69584 | 9907 ft | 217 kts | 23° |
| 2026-04-25 18:48 | 12.43423 | -71.68955 | 9901 ft | 215 kts | 23° |
| 2026-04-25 18:49 | 12.44797 | -71.68328 | 9909 ft | 217 kts | 23° |
| 2026-04-25 18:49 | 12.46181 | -71.67696 | 9906 ft | 219 kts | 23° |
| 2026-04-25 18:49 | 12.47552 | -71.67068 | 9907 ft | 219 kts | 23° |
| 2026-04-25 18:49 | 12.48985 | -71.66545 | 9908 ft | 220 kts | 15° |
| 2026-04-25 18:50 | 12.50466 | -71.66122 | 9904 ft | 222 kts | 14° |
| 2026-04-25 18:50 | 12.51949 | -71.65696 | 9902 ft | 221 kts | 14° |
| 2026-04-25 18:50 | 12.53433 | -71.65274 | 9904 ft | 222 kts | 14° |
| 2026-04-25 18:50 | 12.54919 | -71.64848 | 9906 ft | 222 kts | 14° |
| 2026-04-25 18:51 | 12.56407 | -71.64423 | 9905 ft | 223 kts | 14° |
| 2026-04-25 18:51 | 12.56890 | -71.64286 | 9904 ft | 222 kts | 14° |
| 2026-04-25 18:51 | 12.59384 | -71.63580 | 9911 ft | 222 kts | 14° |
| 2026-04-25 18:51 | 12.60878 | -71.63155 | 9911 ft | 223 kts | 14° |
| 2026-04-25 18:52 | 12.62348 | -71.62739 | 9911 ft | 222 kts | 14° |
| 2026-04-25 18:52 | 12.63840 | -71.62315 | 9910 ft | 223 kts | 14° |
| 2026-04-25 18:52 | 12.65333 | -71.61887 | 9908 ft | 222 kts | 14° |
| 2026-04-25 18:52 | 12.66824 | -71.61464 | 9912 ft | 222 kts | 14° |
| 2026-04-25 18:53 | 12.68317 | -71.61041 | 9908 ft | 223 kts | 14° |
| 2026-04-25 18:53 | 12.69816 | -71.60613 | 9913 ft | 223 kts | 14° |
| 2026-04-25 18:53 | 12.70805 | -71.60332 | 9915 ft | 222 kts | 14° |
| 2026-04-25 18:53 | 12.72800 | -71.59770 | 9914 ft | 222 kts | 14° |
| 2026-04-25 18:54 | 12.75767 | -71.58923 | 9911 ft | 222 kts | 14° |
| 2026-04-25 18:54 | 12.77257 | -71.58500 | 9914 ft | 222 kts | 14° |
| 2026-04-25 18:54 | 12.78749 | -71.58073 | 9913 ft | 223 kts | 14° |
| 2026-04-25 18:55 | 12.80242 | -71.57646 | 9909 ft | 222 kts | 14° |
| 2026-04-25 18:55 | 12.81729 | -71.57226 | 9910 ft | 222 kts | 14° |
| 2026-04-25 18:55 | 12.83220 | -71.56803 | 9908 ft | 223 kts | 14° |
| 2026-04-25 18:55 | 12.84208 | -71.56520 | 9908 ft | 223 kts | 14° |
| 2026-04-25 18:56 | 12.85699 | -71.56093 | 9909 ft | 222 kts | 14° |
| 2026-04-25 18:56 | 12.87673 | -71.55529 | 9908 ft | 222 kts | 14° |
| 2026-04-25 18:56 | 12.89163 | -71.55105 | 9908 ft | 222 kts | 14° |
| 2026-04-25 18:56 | 12.90653 | -71.54683 | 9909 ft | 222 kts | 14° |
| 2026-04-25 18:57 | 12.92141 | -71.54262 | 9912 ft | 222 kts | 14° |
| 2026-04-25 18:57 | 12.93127 | -71.53982 | 9911 ft | 222 kts | 14° |
| 2026-04-25 18:57 | 12.94617 | -71.53560 | 9909 ft | 222 kts | 14° |
| 2026-04-25 18:57 | 12.95604 | -71.53281 | 9910 ft | 222 kts | 14° |
| 2026-04-25 18:58 | 12.97598 | -71.52716 | 9907 ft | 222 kts | 14° |
| 2026-04-25 18:58 | 13.01065 | -71.51737 | 9906 ft | 223 kts | 14° |
| 2026-04-25 18:58 | 13.02075 | -71.51451 | 9905 ft | 223 kts | 14° |
| 2026-04-25 18:59 | 13.05060 | -71.50608 | 9911 ft | 222 kts | 14° |
| 2026-04-25 18:59 | 13.08021 | -71.49770 | 9908 ft | 222 kts | 14° |
| 2026-04-25 19:00 | 13.11004 | -71.48927 | 9911 ft | 223 kts | 14° |
| 2026-04-25 19:00 | 13.12497 | -71.48504 | 9914 ft | 223 kts | 14° |
| 2026-04-25 19:01 | 13.15483 | -71.47661 | 9915 ft | 222 kts | 14° |
| 2026-04-25 19:01 | 13.16977 | -71.47237 | 9914 ft | 223 kts | 14° |
| 2026-04-25 19:01 | 13.18477 | -71.46808 | 9911 ft | 224 kts | 14° |
| 2026-04-25 19:01 | 13.19958 | -71.46385 | 9911 ft | 224 kts | 14° |
| 2026-04-25 19:02 | 13.22960 | -71.45529 | 9912 ft | 224 kts | 14° |
| 2026-04-25 19:02 | 13.24462 | -71.45099 | 9911 ft | 224 kts | 14° |
| 2026-04-25 19:02 | 13.25962 | -71.44669 | 9912 ft | 224 kts | 14° |
| 2026-04-25 19:03 | 13.28458 | -71.43955 | 9911 ft | 224 kts | 14° |
| 2026-04-25 19:03 | 13.30447 | -71.43387 | 9913 ft | 224 kts | 14° |
| 2026-04-25 19:03 | 13.31947 | -71.42958 | 9913 ft | 224 kts | 14° |
| 2026-04-25 19:04 | 13.34951 | -71.42100 | 9907 ft | 224 kts | 14° |
| 2026-04-25 19:04 | 13.36452 | -71.41673 | 9909 ft | 224 kts | 14° |
| 2026-04-25 19:05 | 13.39458 | -71.40817 | 9914 ft | 224 kts | 14° |
| 2026-04-25 19:05 | 13.42459 | -71.39963 | 9914 ft | 224 kts | 14° |
| 2026-04-25 19:05 | 13.43939 | -71.39541 | 9914 ft | 224 kts | 14° |
| 2026-04-25 19:06 | 13.45440 | -71.39114 | 9915 ft | 224 kts | 14° |
| 2026-04-25 19:06 | 13.48441 | -71.38258 | 9915 ft | 224 kts | 14° |
| 2026-04-25 19:06 | 13.49941 | -71.37830 | 9915 ft | 224 kts | 14° |
| 2026-04-25 19:07 | 13.52958 | -71.36964 | 9909 ft | 225 kts | 14° |
| 2026-04-25 19:07 | 13.54468 | -71.36528 | 9911 ft | 226 kts | 14° |
| 2026-04-25 19:08 | 13.57469 | -71.35665 | 9913 ft | 225 kts | 14° |
| 2026-04-25 19:08 | 13.58981 | -71.35231 | 9912 ft | 225 kts | 14° |
| 2026-04-25 19:09 | 13.63507 | -71.33938 | 9918 ft | 225 kts | 14° |
| 2026-04-25 19:09 | 13.64506 | -71.33652 | 9918 ft | 225 kts | 14° |
| 2026-04-25 19:09 | 13.68029 | -71.32644 | 9916 ft | 225 kts | 14° |
| 2026-04-25 19:10 | 13.69518 | -71.32217 | 9911 ft | 225 kts | 14° |
| 2026-04-25 19:10 | 13.71027 | -71.31783 | 9913 ft | 225 kts | 14° |
| 2026-04-25 19:10 | 13.72537 | -71.31349 | 9915 ft | 225 kts | 14° |
| 2026-04-25 19:10 | 13.74047 | -71.30915 | 9916 ft | 225 kts | 14° |
| 2026-04-25 19:11 | 13.75558 | -71.30482 | 9914 ft | 225 kts | 14° |
| 2026-04-25 19:11 | 13.77068 | -71.30049 | 9915 ft | 225 kts | 14° |
| 2026-04-25 19:11 | 13.78576 | -71.29616 | 9912 ft | 225 kts | 14° |
| 2026-04-25 19:11 | 13.80085 | -71.29183 | 9912 ft | 225 kts | 14° |
| 2026-04-25 19:12 | 13.81594 | -71.28752 | 9917 ft | 225 kts | 14° |
| 2026-04-25 19:12 | 13.83082 | -71.28327 | 9915 ft | 225 kts | 14° |
| 2026-04-25 19:12 | 13.84591 | -71.27895 | 9914 ft | 225 kts | 14° |
| 2026-04-25 19:12 | 13.86100 | -71.27462 | 9914 ft | 225 kts | 14° |
| 2026-04-25 19:13 | 13.87611 | -71.27029 | 9913 ft | 226 kts | 14° |
| 2026-04-25 19:13 | 13.89123 | -71.26596 | 9912 ft | 226 kts | 14° |
| 2026-04-25 19:13 | 13.90635 | -71.26163 | 9915 ft | 226 kts | 14° |
| 2026-04-25 19:13 | 13.92147 | -71.25729 | 9915 ft | 225 kts | 14° |
| 2026-04-25 19:14 | 13.93659 | -71.25295 | 9912 ft | 225 kts | 14° |
| 2026-04-25 19:14 | 13.94659 | -71.25007 | 9913 ft | 225 kts | 14° |
| 2026-04-25 19:14 | 13.96681 | -71.24428 | 9913 ft | 225 kts | 14° |
| 2026-04-25 19:14 | 13.98170 | -71.24002 | 9915 ft | 225 kts | 14° |
| 2026-04-25 19:15 | 13.99679 | -71.23570 | 9917 ft | 225 kts | 14° |
| 2026-04-25 19:15 | 14.01188 | -71.23140 | 9915 ft | 225 kts | 14° |
| 2026-04-25 19:15 | 14.02698 | -71.22709 | 9912 ft | 225 kts | 14° |
| 2026-04-25 19:15 | 14.04208 | -71.22279 | 9913 ft | 225 kts | 14° |
| 2026-04-25 19:16 | 14.05719 | -71.21849 | 9913 ft | 225 kts | 14° |
| 2026-04-25 19:16 | 14.07227 | -71.21418 | 9915 ft | 225 kts | 14° |
| 2026-04-25 19:16 | 14.08717 | -71.20992 | 9915 ft | 225 kts | 14° |
| 2026-04-25 19:16 | 14.10229 | -71.20558 | 9915 ft | 226 kts | 14° |
| 2026-04-25 19:17 | 14.11741 | -71.20126 | 9910 ft | 226 kts | 14° |
| 2026-04-25 19:17 | 14.13254 | -71.19694 | 9911 ft | 226 kts | 14° |
| 2026-04-25 19:17 | 14.14765 | -71.19261 | 9914 ft | 225 kts | 14° |
| 2026-04-25 19:17 | 14.16276 | -71.18828 | 9918 ft | 225 kts | 14° |
| 2026-04-25 19:18 | 14.17789 | -71.18391 | 9914 ft | 226 kts | 14° |
| 2026-04-25 19:18 | 14.19306 | -71.17952 | 9914 ft | 226 kts | 14° |
| 2026-04-25 19:18 | 14.20821 | -71.17515 | 9913 ft | 226 kts | 14° |
| 2026-04-25 19:18 | 14.22318 | -71.17083 | 9912 ft | 226 kts | 14° |
| 2026-04-25 19:19 | 14.23834 | -71.16646 | 9914 ft | 226 kts | 14° |
| 2026-04-25 19:19 | 14.25348 | -71.16209 | 9915 ft | 226 kts | 14° |
| 2026-04-25 19:19 | 14.26863 | -71.15771 | 9918 ft | 226 kts | 14° |
| 2026-04-25 19:19 | 14.27864 | -71.15481 | 9938 ft | 225 kts | 14° |
| 2026-04-25 19:20 | 14.29872 | -71.14900 | 9965 ft | 224 kts | 14° |
| 2026-04-25 19:20 | 14.31372 | -71.14465 | 9965 ft | 224 kts | 14° |
| 2026-04-25 19:20 | 14.32878 | -71.14029 | 9955 ft | 226 kts | 14° |
| 2026-04-25 19:20 | 14.34395 | -71.13590 | 9936 ft | 227 kts | 14° |
| 2026-04-25 19:21 | 14.35893 | -71.13155 | 9933 ft | 226 kts | 14° |
| 2026-04-25 19:21 | 14.38912 | -71.12281 | 9961 ft | 225 kts | 14° |
| 2026-04-25 19:21 | 14.40417 | -71.11846 | 9985 ft | 224 kts | 14° |
| 2026-04-25 19:22 | 14.41918 | -71.11410 | 9993 ft | 224 kts | 14° |
| 2026-04-25 19:22 | 14.43420 | -71.10974 | 9991 ft | 225 kts | 14° |
| 2026-04-25 19:22 | 14.46443 | -71.10095 | 9973 ft | 226 kts | 14° |
| 2026-04-25 19:23 | 14.47938 | -71.09662 | 9968 ft | 226 kts | 14° |
| 2026-04-25 19:23 | 14.50965 | -71.08784 | 9976 ft | 226 kts | 14° |
| 2026-04-25 19:23 | 14.52477 | -71.08342 | 9973 ft | 226 kts | 14° |
| 2026-04-25 19:24 | 14.53989 | -71.07900 | 9979 ft | 226 kts | 14° |
| 2026-04-25 19:24 | 14.55499 | -71.07459 | 9976 ft | 226 kts | 14° |
| 2026-04-25 19:24 | 14.58521 | -71.06575 | 9981 ft | 226 kts | 14° |
| 2026-04-25 19:25 | 14.61543 | -71.05689 | 9978 ft | 225 kts | 14° |
| 2026-04-25 19:25 | 14.63032 | -71.05252 | 9977 ft | 226 kts | 14° |
| 2026-04-25 19:25 | 14.64544 | -71.04809 | 9976 ft | 226 kts | 14° |
| 2026-04-25 19:26 | 14.66054 | -71.04365 | 9981 ft | 226 kts | 14° |
| 2026-04-25 19:26 | 14.67563 | -71.03922 | 9985 ft | 225 kts | 14° |
| 2026-04-25 19:26 | 14.69073 | -71.03480 | 9988 ft | 226 kts | 14° |
| 2026-04-25 19:26 | 14.70582 | -71.03038 | 9992 ft | 225 kts | 14° |
| 2026-04-25 19:27 | 14.72091 | -71.02597 | 10000 ft | 225 kts | 14° |
| 2026-04-25 19:27 | 14.73091 | -71.02304 | 10004 ft | 225 kts | 14° |
| 2026-04-25 19:27 | 14.75089 | -71.01720 | 10013 ft | 225 kts | 14° |
| 2026-04-25 19:27 | 14.76597 | -71.01279 | 10014 ft | 225 kts | 14° |
| 2026-04-25 19:28 | 14.78105 | -71.00837 | 10020 ft | 225 kts | 14° |
| 2026-04-25 19:28 | 14.79611 | -71.00395 | 10026 ft | 225 kts | 14° |
| 2026-04-25 19:28 | 14.81118 | -70.99954 | 10029 ft | 225 kts | 14° |
| 2026-04-25 19:28 | 14.82624 | -70.99513 | 10033 ft | 225 kts | 14° |
| 2026-04-25 19:29 | 14.84129 | -70.99074 | 10043 ft | 225 kts | 14° |
| 2026-04-25 19:29 | 14.85632 | -70.98638 | 10056 ft | 224 kts | 14° |
| 2026-04-25 19:29 | 14.87129 | -70.98203 | 10072 ft | 224 kts | 14° |
| 2026-04-25 19:29 | 14.88607 | -70.97773 | 10080 ft | 223 kts | 14° |
| 2026-04-25 19:30 | 14.90104 | -70.97337 | 10096 ft | 224 kts | 14° |
| 2026-04-25 19:30 | 14.91600 | -70.96901 | 10106 ft | 223 kts | 14° |
| 2026-04-25 19:30 | 14.93097 | -70.96465 | 10111 ft | 224 kts | 14° |
| 2026-04-25 19:30 | 14.94595 | -70.96029 | 10129 ft | 223 kts | 14° |
| 2026-04-25 19:31 | 14.96092 | -70.95593 | 10139 ft | 224 kts | 14° |
| 2026-04-25 19:31 | 14.97591 | -70.95157 | 10143 ft | 224 kts | 14° |
| 2026-04-25 19:31 | 14.99090 | -70.94720 | 10156 ft | 224 kts | 14° |
| 2026-04-25 19:31 | 15.00586 | -70.94285 | 10174 ft | 223 kts | 14° |
| 2026-04-25 19:32 | 15.02062 | -70.93857 | 10181 ft | 223 kts | 14° |
| 2026-04-25 19:32 | 15.03558 | -70.93422 | 10185 ft | 224 kts | 14° |
| 2026-04-25 19:32 | 15.05058 | -70.92986 | 10192 ft | 224 kts | 14° |
| 2026-04-25 19:32 | 15.06051 | -70.92697 | 10189 ft | 224 kts | 14° |
| 2026-04-25 19:33 | 15.08063 | -70.92112 | 10189 ft | 224 kts | 14° |
| 2026-04-25 19:33 | 15.09565 | -70.91676 | 10192 ft | 224 kts | 14° |
| 2026-04-25 19:33 | 15.11069 | -70.91239 | 10195 ft | 224 kts | 14° |
| 2026-04-25 19:33 | 15.12572 | -70.90802 | 10199 ft | 224 kts | 14° |
| 2026-04-25 19:34 | 15.14075 | -70.90366 | 10211 ft | 224 kts | 14° |
| 2026-04-25 19:34 | 15.15554 | -70.89935 | 10222 ft | 224 kts | 14° |
| 2026-04-25 19:34 | 15.17053 | -70.89497 | 10238 ft | 224 kts | 14° |
| 2026-04-25 19:34 | 15.18551 | -70.89060 | 10243 ft | 224 kts | 14° |
| 2026-04-25 19:35 | 15.20049 | -70.88623 | 10257 ft | 224 kts | 14° |
| 2026-04-25 19:35 | 15.21546 | -70.88185 | 10269 ft | 223 kts | 14° |
| 2026-04-25 19:35 | 15.23043 | -70.87747 | 10278 ft | 224 kts | 14° |
| 2026-04-25 19:35 | 15.24544 | -70.87309 | 10279 ft | 224 kts | 14° |
| 2026-04-25 19:36 | 15.26023 | -70.86876 | 10270 ft | 225 kts | 14° |
| 2026-04-25 19:36 | 15.27527 | -70.86435 | 10270 ft | 225 kts | 14° |
| 2026-04-25 19:36 | 15.29013 | -70.86002 | 10274 ft | 225 kts | 14° |
| 2026-04-25 19:36 | 15.30518 | -70.85564 | 10282 ft | 225 kts | 14° |
| 2026-04-25 19:37 | 15.32021 | -70.85126 | 10295 ft | 224 kts | 14° |
| 2026-04-25 19:37 | 15.33521 | -70.84688 | 10302 ft | 224 kts | 14° |
| 2026-04-25 19:37 | 15.35021 | -70.84251 | 10319 ft | 224 kts | 14° |
| 2026-04-25 19:37 | 15.36519 | -70.83814 | 10327 ft | 224 kts | 14° |
| 2026-04-25 19:38 | 15.38019 | -70.83377 | 10320 ft | 224 kts | 14° |
| 2026-04-25 19:38 | 15.39523 | -70.82938 | 10327 ft | 225 kts | 14° |
| 2026-04-25 19:38 | 15.41006 | -70.82505 | 10331 ft | 225 kts | 14° |
| 2026-04-25 19:38 | 15.42512 | -70.82066 | 10333 ft | 225 kts | 14° |
| 2026-04-25 19:39 | 15.44018 | -70.81627 | 10333 ft | 225 kts | 14° |
| 2026-04-25 19:39 | 15.45524 | -70.81188 | 10342 ft | 225 kts | 14° |
| 2026-04-25 19:39 | 15.47029 | -70.80748 | 10341 ft | 225 kts | 14° |
| 2026-04-25 19:39 | 15.48537 | -70.80308 | 10338 ft | 225 kts | 14° |
| 2026-04-25 19:40 | 15.50048 | -70.79867 | 10327 ft | 226 kts | 14° |
| 2026-04-25 19:40 | 15.51560 | -70.79424 | 10321 ft | 226 kts | 14° |
| 2026-04-25 19:40 | 15.53050 | -70.78988 | 10326 ft | 226 kts | 14° |
| 2026-04-25 19:40 | 15.54564 | -70.78546 | 10315 ft | 226 kts | 13° |
| 2026-04-25 19:41 | 15.56076 | -70.78103 | 10314 ft | 226 kts | 14° |
| 2026-04-25 19:41 | 15.57588 | -70.77660 | 10302 ft | 226 kts | 14° |
| 2026-04-25 19:41 | 15.59097 | -70.77217 | 10301 ft | 226 kts | 13° |
| 2026-04-25 19:41 | 15.60115 | -70.76975 | 10265 ft | 228 kts | 8° |
| 2026-04-25 19:42 | 15.62227 | -70.76644 | 10154 ft | 231 kts | 6° |
| 2026-04-25 19:42 | 15.63827 | -70.76411 | 10071 ft | 233 kts | 6° |
| 2026-04-25 19:42 | 15.65435 | -70.76178 | 10000 ft | 234 kts | 6° |
| 2026-04-25 19:42 | 15.67045 | -70.75945 | 9955 ft | 233 kts | 6° |
| 2026-04-25 19:43 | 15.68623 | -70.75718 | 9946 ft | 231 kts | 6° |
| 2026-04-25 19:43 | 15.70204 | -70.75490 | 9968 ft | 228 kts | 6° |
| 2026-04-25 19:43 | 15.71770 | -70.75264 | 9970 ft | 227 kts | 6° |
| 2026-04-25 19:43 | 15.73341 | -70.75038 | 9949 ft | 228 kts | 6° |
| 2026-04-25 19:44 | 15.74906 | -70.74813 | 9948 ft | 227 kts | 6° |
| 2026-04-25 19:44 | 15.76469 | -70.74588 | 9934 ft | 227 kts | 6° |
| 2026-04-25 19:44 | 15.78037 | -70.74363 | 9919 ft | 227 kts | 6° |
| 2026-04-25 19:44 | 15.79601 | -70.74139 | 9917 ft | 227 kts | 6° |
| 2026-04-25 19:45 | 15.81142 | -70.73918 | 9920 ft | 226 kts | 6° |
| 2026-04-25 19:45 | 15.82703 | -70.73691 | 9920 ft | 227 kts | 6° |
| 2026-04-25 19:45 | 15.84264 | -70.73460 | 9919 ft | 227 kts | 6° |
| 2026-04-25 19:45 | 15.85822 | -70.73228 | 9922 ft | 226 kts | 6° |
| 2026-04-25 19:46 | 15.87378 | -70.72996 | 9918 ft | 226 kts | 6° |
| 2026-04-25 19:46 | 15.88930 | -70.72767 | 9915 ft | 226 kts | 6° |
| 2026-04-25 19:46 | 15.90503 | -70.72535 | 9861 ft | 228 kts | 6° |
| 2026-04-25 19:46 | 15.92065 | -70.72305 | 9910 ft | 225 kts | 6° |
| 2026-04-25 19:47 | 15.93607 | -70.72077 | 9946 ft | 224 kts | 6° |
| 2026-04-25 19:47 | 15.95156 | -70.71847 | 9943 ft | 225 kts | 6° |
| 2026-04-25 19:47 | 15.96690 | -70.71619 | 9936 ft | 226 kts | 6° |
| 2026-04-25 19:47 | 15.98246 | -70.71388 | 9933 ft | 226 kts | 6° |
| 2026-04-25 19:48 | 15.99807 | -70.71157 | 9932 ft | 226 kts | 6° |
| 2026-04-25 19:48 | 16.01369 | -70.70926 | 9934 ft | 227 kts | 5° |
| 2026-04-25 19:48 | 16.02931 | -70.70696 | 9936 ft | 227 kts | 6° |
| 2026-04-25 19:48 | 16.04493 | -70.70466 | 9936 ft | 227 kts | 6° |
| 2026-04-25 19:49 | 16.06051 | -70.70235 | 9935 ft | 227 kts | 6° |
| 2026-04-25 19:49 | 16.07085 | -70.70081 | 9934 ft | 226 kts | 6° |
| 2026-04-25 19:49 | 16.09151 | -70.69773 | 9935 ft | 226 kts | 6° |
| 2026-04-25 19:49 | 16.10710 | -70.69539 | 9935 ft | 226 kts | 6° |
| 2026-04-25 19:50 | 16.13822 | -70.69072 | 9936 ft | 226 kts | 6° |
| 2026-04-25 19:50 | 16.15382 | -70.68834 | 9937 ft | 227 kts | 6° |
| 2026-04-25 19:50 | 16.16941 | -70.68591 | 9934 ft | 227 kts | 6° |
| 2026-04-25 19:51 | 16.18502 | -70.68347 | 9935 ft | 227 kts | 5° |
| 2026-04-25 19:51 | 16.20058 | -70.68105 | 9935 ft | 227 kts | 5° |
| 2026-04-25 19:51 | 16.21598 | -70.67866 | 9935 ft | 227 kts | 5° |
| 2026-04-25 19:51 | 16.23160 | -70.67622 | 9936 ft | 227 kts | 6° |
| 2026-04-25 19:52 | 16.24718 | -70.67379 | 9933 ft | 227 kts | 5° |
| 2026-04-25 19:52 | 16.26279 | -70.67135 | 9935 ft | 227 kts | 5° |
| 2026-04-25 19:52 | 16.27840 | -70.66892 | 9938 ft | 227 kts | 6° |
| 2026-04-25 19:52 | 16.29400 | -70.66647 | 9938 ft | 227 kts | 6° |
| 2026-04-25 19:53 | 16.30956 | -70.66403 | 9938 ft | 227 kts | 5° |
| 2026-04-25 19:53 | 16.32517 | -70.66160 | 9938 ft | 227 kts | 6° |
| 2026-04-25 19:53 | 16.34078 | -70.65915 | 9938 ft | 227 kts | 6° |
| 2026-04-25 19:53 | 16.35618 | -70.65674 | 9938 ft | 227 kts | 6° |
| 2026-04-25 19:54 | 16.37175 | -70.65431 | 9938 ft | 227 kts | 5° |
| 2026-04-25 19:54 | 16.38737 | -70.65189 | 9936 ft | 227 kts | 6° |
| 2026-04-25 19:54 | 16.40299 | -70.64946 | 9935 ft | 227 kts | 5° |
| 2026-04-25 19:54 | 16.41332 | -70.64786 | 9935 ft | 227 kts | 5° |
| 2026-04-25 19:55 | 16.43421 | -70.64461 | 9938 ft | 227 kts | 6° |
| 2026-04-25 19:55 | 16.44978 | -70.64219 | 9938 ft | 227 kts | 5° |
| 2026-04-25 19:55 | 16.46538 | -70.63976 | 9938 ft | 227 kts | 5° |
| 2026-04-25 19:55 | 16.48079 | -70.63736 | 9940 ft | 227 kts | 5° |
| 2026-04-25 19:56 | 16.49640 | -70.63491 | 9933 ft | 227 kts | 5° |
| 2026-04-25 19:56 | 16.51197 | -70.63248 | 9934 ft | 227 kts | 5° |
| 2026-04-25 19:56 | 16.52756 | -70.63002 | 9933 ft | 227 kts | 5° |
| 2026-04-25 19:56 | 16.54319 | -70.62758 | 9932 ft | 227 kts | 5° |
| 2026-04-25 19:57 | 16.55880 | -70.62515 | 9937 ft | 227 kts | 5° |
| 2026-04-25 19:57 | 16.57442 | -70.62269 | 9936 ft | 227 kts | 5° |
| 2026-04-25 19:57 | 16.58999 | -70.62025 | 9935 ft | 227 kts | 5° |
| 2026-04-25 19:57 | 16.60561 | -70.61782 | 9938 ft | 227 kts | 5° |
| 2026-04-25 19:58 | 16.62123 | -70.61538 | 9935 ft | 227 kts | 5° |
| 2026-04-25 19:58 | 16.63663 | -70.61298 | 9935 ft | 227 kts | 5° |
| 2026-04-25 19:58 | 16.65220 | -70.61055 | 9936 ft | 227 kts | 5° |
| 2026-04-25 19:58 | 16.66782 | -70.60811 | 9935 ft | 227 kts | 5° |
| 2026-04-25 19:59 | 16.68345 | -70.60568 | 9935 ft | 227 kts | 5° |
| 2026-04-25 19:59 | 16.69908 | -70.60325 | 9935 ft | 227 kts | 5° |
| 2026-04-25 19:59 | 16.71466 | -70.60084 | 9935 ft | 227 kts | 5° |
| 2026-04-25 19:59 | 16.73030 | -70.59840 | 9936 ft | 227 kts | 5° |
| 2026-04-25 20:00 | 16.74593 | -70.59597 | 9949 ft | 226 kts | 5° |
| 2026-04-25 20:00 | 16.75635 | -70.59511 | 9931 ft | 227 kts | 359° |
| 2026-04-25 20:00 | 16.77743 | -70.59462 | 9927 ft | 226 kts | 358° |
| 2026-04-25 20:00 | 16.79314 | -70.59436 | 9923 ft | 226 kts | 358° |
| 2026-04-25 20:01 | 16.82412 | -70.59392 | 9928 ft | 224 kts | 356° |
| 2026-04-25 20:01 | 16.83972 | -70.59390 | 9917 ft | 224 kts | 356° |
| 2026-04-25 20:01 | 16.85530 | -70.59389 | 9918 ft | 224 kts | 356° |
| 2026-04-25 20:02 | 16.87087 | -70.59388 | 9920 ft | 224 kts | 356° |
| 2026-04-25 20:02 | 16.88643 | -70.59388 | 9918 ft | 224 kts | 356° |
| 2026-04-25 20:02 | 16.90198 | -70.59387 | 9919 ft | 223 kts | 356° |
| 2026-04-25 20:02 | 16.91753 | -70.59387 | 9918 ft | 223 kts | 356° |
| 2026-04-25 20:03 | 16.93287 | -70.59385 | 9915 ft | 223 kts | 356° |
| 2026-04-25 20:03 | 16.94847 | -70.59387 | 9852 ft | 226 kts | 356° |
| 2026-04-25 20:03 | 16.96416 | -70.59388 | 9891 ft | 224 kts | 356° |
| 2026-04-25 20:03 | 16.97968 | -70.59387 | 9936 ft | 222 kts | 356° |
| 2026-04-25 20:04 | 16.99511 | -70.59386 | 9945 ft | 223 kts | 356° |
| 2026-04-25 20:04 | 17.01063 | -70.59385 | 9937 ft | 223 kts | 356° |
| 2026-04-25 20:04 | 17.02621 | -70.59386 | 9934 ft | 224 kts | 356° |
| 2026-04-25 20:04 | 17.04178 | -70.59388 | 9935 ft | 224 kts | 356° |
| 2026-04-25 20:05 | 17.05736 | -70.59388 | 9933 ft | 224 kts | 356° |
| 2026-04-25 20:05 | 17.07271 | -70.59388 | 9935 ft | 224 kts | 356° |
| 2026-04-25 20:05 | 17.08829 | -70.59390 | 9936 ft | 224 kts | 356° |
| 2026-04-25 20:05 | 17.10388 | -70.59391 | 9935 ft | 224 kts | 356° |
| 2026-04-25 20:06 | 17.11943 | -70.59392 | 9935 ft | 224 kts | 356° |
| 2026-04-25 20:06 | 17.13501 | -70.59393 | 9933 ft | 224 kts | 356° |
| 2026-04-25 20:06 | 17.15060 | -70.59394 | 9932 ft | 224 kts | 356° |
| 2026-04-25 20:06 | 17.16620 | -70.59396 | 9932 ft | 224 kts | 356° |
| 2026-04-25 20:07 | 17.18159 | -70.59398 | 9936 ft | 224 kts | 356° |
| 2026-04-25 20:07 | 17.19739 | -70.59400 | 9935 ft | 224 kts | 356° |
| 2026-04-25 20:07 | 17.21275 | -70.59403 | 9935 ft | 224 kts | 356° |
| 2026-04-25 20:07 | 17.22834 | -70.59405 | 9935 ft | 224 kts | 356° |
| 2026-04-25 20:08 | 17.24393 | -70.59407 | 9935 ft | 224 kts | 356° |
| 2026-04-25 20:08 | 17.25952 | -70.59409 | 9934 ft | 224 kts | 356° |
| 2026-04-25 20:08 | 17.27505 | -70.59408 | 9936 ft | 224 kts | 356° |
| 2026-04-25 20:08 | 17.29061 | -70.59408 | 9935 ft | 224 kts | 356° |
| 2026-04-25 20:09 | 17.30618 | -70.59409 | 9932 ft | 224 kts | 356° |
| 2026-04-25 20:09 | 17.32175 | -70.59409 | 9935 ft | 224 kts | 356° |
| 2026-04-25 20:09 | 17.33729 | -70.59411 | 9933 ft | 224 kts | 356° |
| 2026-04-25 20:09 | 17.35266 | -70.59413 | 9933 ft | 224 kts | 356° |
| 2026-04-25 20:10 | 17.36824 | -70.59414 | 9932 ft | 224 kts | 356° |
| 2026-04-25 20:10 | 17.38384 | -70.59416 | 9934 ft | 224 kts | 356° |
| 2026-04-25 20:10 | 17.39939 | -70.59419 | 9935 ft | 224 kts | 356° |
| 2026-04-25 20:10 | 17.41499 | -70.59420 | 9935 ft | 224 kts | 356° |
| 2026-04-25 20:11 | 17.43060 | -70.59422 | 9938 ft | 224 kts | 356° |
| 2026-04-25 20:11 | 17.44619 | -70.59423 | 9938 ft | 224 kts | 356° |
| 2026-04-25 20:11 | 17.46180 | -70.59420 | 9932 ft | 224 kts | 356° |
| 2026-04-25 20:11 | 17.47716 | -70.59411 | 9935 ft | 224 kts | 356° |
| 2026-04-25 20:12 | 17.49275 | -70.59402 | 9932 ft | 224 kts | 356° |
| 2026-04-25 20:12 | 17.50836 | -70.59394 | 9932 ft | 224 kts | 356° |
| 2026-04-25 20:12 | 17.52396 | -70.59385 | 9933 ft | 224 kts | 356° |
| 2026-04-25 20:12 | 17.52919 | -70.59382 | 9933 ft | 224 kts | 356° |
| 2026-04-25 20:13 | 17.55513 | -70.59366 | 9933 ft | 224 kts | 356° |
| 2026-04-25 20:13 | 17.57074 | -70.59355 | 9932 ft | 224 kts | 356° |
| 2026-04-25 20:13 | 17.58632 | -70.59344 | 9930 ft | 224 kts | 356° |
| 2026-04-25 20:13 | 17.60193 | -70.59334 | 9929 ft | 224 kts | 356° |
| 2026-04-25 20:14 | 17.61754 | -70.59323 | 9929 ft | 224 kts | 356° |
| 2026-04-25 20:14 | 17.63291 | -70.59313 | 9929 ft | 224 kts | 356° |
| 2026-04-25 20:14 | 17.64843 | -70.59303 | 9929 ft | 223 kts | 356° |
| 2026-04-25 20:14 | 17.66400 | -70.59293 | 9929 ft | 224 kts | 356° |
| 2026-04-25 20:15 | 17.67957 | -70.59282 | 9933 ft | 224 kts | 356° |
| 2026-04-25 20:15 | 17.69514 | -70.59269 | 9932 ft | 224 kts | 356° |
| 2026-04-25 20:15 | 17.71072 | -70.59260 | 9932 ft | 224 kts | 356° |
| 2026-04-25 20:15 | 17.72628 | -70.59249 | 9933 ft | 224 kts | 356° |
| 2026-04-25 20:16 | 17.74188 | -70.59239 | 9930 ft | 224 kts | 356° |
| 2026-04-25 20:16 | 17.75750 | -70.59229 | 9952 ft | 223 kts | 356° |
| 2026-04-25 20:16 | 17.77303 | -70.59219 | 9930 ft | 225 kts | 356° |
| 2026-04-25 20:16 | 17.78843 | -70.59210 | 9926 ft | 224 kts | 356° |
| 2026-04-25 20:17 | 17.80402 | -70.59201 | 9928 ft | 224 kts | 356° |
| 2026-04-25 20:17 | 17.81964 | -70.59190 | 9912 ft | 225 kts | 356° |
| 2026-04-25 20:17 | 17.83523 | -70.59180 | 9927 ft | 224 kts | 356° |
| 2026-04-25 20:17 | 17.85076 | -70.59171 | 9950 ft | 223 kts | 356° |
| 2026-04-25 20:18 | 17.86623 | -70.59159 | 9974 ft | 222 kts | 356° |
| 2026-04-25 20:18 | 17.88168 | -70.59148 | 9963 ft | 223 kts | 356° |
| 2026-04-25 20:18 | 17.89730 | -70.59138 | 9923 ft | 225 kts | 356° |
| 2026-04-25 20:18 | 17.91276 | -70.59129 | 9922 ft | 225 kts | 356° |
| 2026-04-25 20:19 | 17.92836 | -70.59121 | 9927 ft | 224 kts | 356° |
| 2026-04-25 20:19 | 17.94394 | -70.59110 | 9928 ft | 224 kts | 356° |
| 2026-04-25 20:19 | 17.95951 | -70.59098 | 9927 ft | 224 kts | 356° |
| 2026-04-25 20:19 | 17.97503 | -70.59087 | 9946 ft | 222 kts | 356° |
| 2026-04-25 20:20 | 17.99052 | -70.59073 | 9942 ft | 223 kts | 356° |
| 2026-04-25 20:20 | 18.00607 | -70.59061 | 9933 ft | 224 kts | 356° |
| 2026-04-25 20:20 | 18.02161 | -70.59049 | 9931 ft | 224 kts | 356° |
| 2026-04-25 20:20 | 18.03694 | -70.59035 | 9944 ft | 223 kts | 356° |
| 2026-04-25 20:21 | 18.05243 | -70.59022 | 9948 ft | 223 kts | 356° |
| 2026-04-25 20:21 | 18.06799 | -70.59011 | 9919 ft | 225 kts | 356° |
| 2026-04-25 20:21 | 18.08361 | -70.59000 | 9916 ft | 224 kts | 356° |
| 2026-04-25 20:21 | 18.09911 | -70.59065 | 9950 ft | 222 kts | 346° |
| 2026-04-25 20:22 | 18.11390 | -70.59471 | 9942 ft | 218 kts | 339° |
| 2026-04-25 20:22 | 18.11858 | -70.59628 | 9927 ft | 218 kts | 339° |
| 2026-04-25 20:22 | 18.14258 | -70.60464 | 9915 ft | 216 kts | 339° |
| 2026-04-25 20:22 | 18.15662 | -70.60956 | 9920 ft | 215 kts | 338° |
| 2026-04-25 20:23 | 18.17083 | -70.61454 | 9925 ft | 215 kts | 338° |
| 2026-04-25 20:23 | 18.18499 | -70.61955 | 9932 ft | 214 kts | 338° |
| 2026-04-25 20:23 | 18.19915 | -70.62448 | 9930 ft | 215 kts | 338° |
| 2026-04-25 20:23 | 18.21332 | -70.62944 | 9918 ft | 215 kts | 338° |
| 2026-04-25 20:24 | 18.22752 | -70.63444 | 9919 ft | 215 kts | 338° |
| 2026-04-25 20:24 | 18.24173 | -70.63945 | 9915 ft | 215 kts | 338° |
| 2026-04-25 20:24 | 18.25595 | -70.64447 | 9914 ft | 215 kts | 338° |
| 2026-04-25 20:24 | 18.27019 | -70.64943 | 9908 ft | 216 kts | 338° |
| 2026-04-25 20:25 | 18.28440 | -70.65442 | 9920 ft | 215 kts | 338° |
| 2026-04-25 20:25 | 18.29854 | -70.65942 | 9936 ft | 214 kts | 338° |
| 2026-04-25 20:25 | 18.31251 | -70.66434 | 9934 ft | 215 kts | 338° |
| 2026-04-25 20:25 | 18.32671 | -70.66930 | 9936 ft | 215 kts | 338° |
| 2026-04-25 20:26 | 18.34089 | -70.67431 | 9925 ft | 216 kts | 338° |
| 2026-04-25 20:26 | 18.35512 | -70.67937 | 9908 ft | 216 kts | 338° |
| 2026-04-25 20:26 | 18.36936 | -70.68437 | 9942 ft | 215 kts | 338° |
| 2026-04-25 20:26 | 18.38349 | -70.68932 | 9973 ft | 214 kts | 338° |
| 2026-04-25 20:27 | 18.39759 | -70.69427 | 9984 ft | 213 kts | 338° |
| 2026-04-25 20:27 | 18.41175 | -70.69930 | 9965 ft | 214 kts | 338° |
| 2026-04-25 20:27 | 18.42571 | -70.70421 | 9940 ft | 217 kts | 339° |
| 2026-04-25 20:27 | 18.44053 | -70.70947 | 9561 ft | 232 kts | 338° |
| 2026-04-25 20:28 | 18.45595 | -70.71501 | 9301 ft | 236 kts | 339° |
| 2026-04-25 20:28 | 18.47157 | -70.72080 | 9060 ft | 239 kts | 338° |
| 2026-04-25 20:28 | 18.48730 | -70.72666 | 8844 ft | 240 kts | 339° |
| 2026-04-25 20:28 | 18.50313 | -70.73248 | 8586 ft | 242 kts | 339° |
| 2026-04-25 20:29 | 18.51911 | -70.73832 | 8351 ft | 244 kts | 338° |
| 2026-04-25 20:29 | 18.53510 | -70.74421 | 8117 ft | 244 kts | 339° |
| 2026-04-25 20:29 | 18.55087 | -70.75009 | 7874 ft | 244 kts | 339° |
| 2026-04-25 20:29 | 18.56689 | -70.75595 | 7658 ft | 244 kts | 339° |
| 2026-04-25 20:30 | 18.58295 | -70.76184 | 7397 ft | 245 kts | 338° |
| 2026-04-25 20:30 | 18.59895 | -70.76788 | 7282 ft | 241 kts | 338° |
| 2026-04-25 20:30 | 18.61438 | -70.77382 | 7331 ft | 232 kts | 338° |
| 2026-04-25 20:30 | 18.62938 | -70.77951 | 7333 ft | 226 kts | 338° |
| 2026-04-25 20:31 | 18.64415 | -70.78502 | 7336 ft | 225 kts | 339° |
| 2026-04-25 20:31 | 18.65884 | -70.79055 | 7354 ft | 224 kts | 338° |
| 2026-04-25 20:31 | 18.67332 | -70.79609 | 7332 ft | 224 kts | 338° |
| 2026-04-25 20:31 | 18.68796 | -70.80159 | 7343 ft | 223 kts | 338° |
| 2026-04-25 20:32 | 18.70259 | -70.80705 | 7349 ft | 223 kts | 338° |
| 2026-04-25 20:32 | 18.71713 | -70.81250 | 7350 ft | 221 kts | 338° |
| 2026-04-25 20:32 | 18.73163 | -70.81806 | 7346 ft | 220 kts | 339° |
| 2026-04-25 20:32 | 18.74603 | -70.82349 | 7349 ft | 220 kts | 339° |
| 2026-04-25 20:33 | 18.76027 | -70.82873 | 7352 ft | 215 kts | 339° |
| 2026-04-25 20:33 | 18.77443 | -70.83402 | 7350 ft | 217 kts | 338° |
| 2026-04-25 20:33 | 18.78877 | -70.83942 | 7365 ft | 221 kts | 338° |
| 2026-04-25 20:33 | 18.79847 | -70.84296 | 7362 ft | 224 kts | 340° |
| 2026-04-25 20:34 | 18.81849 | -70.84876 | 7351 ft | 226 kts | 343° |
| 2026-04-25 20:34 | 18.83367 | -70.85292 | 7367 ft | 226 kts | 343° |
| 2026-04-25 20:34 | 18.84905 | -70.85611 | 7365 ft | 225 kts | 351° |
| 2026-04-25 20:34 | 18.86467 | -70.85518 | 7377 ft | 227 kts | 12° |
| 2026-04-25 20:35 | 18.87989 | -70.84968 | 7126 ft | 241 kts | 21° |
| 2026-04-25 20:35 | 18.89480 | -70.84107 | 6851 ft | 247 kts | 33° |
| 2026-04-25 20:35 | 18.90799 | -70.82993 | 6900 ft | 240 kts | 47° |
| 2026-04-25 20:35 | 18.91690 | -70.81548 | 6832 ft | 239 kts | 70° |
| 2026-04-25 20:36 | 18.91918 | -70.79824 | 6399 ft | 240 kts | 95° |
| 2026-04-25 20:36 | 18.91485 | -70.78134 | 6061 ft | 235 kts | 114° |
| 2026-04-25 20:36 | 18.90849 | -70.76576 | 5920 ft | 226 kts | 116° |
| 2026-04-25 20:36 | 18.90233 | -70.75161 | 5743 ft | 198 kts | 117° |
| 2026-04-25 20:37 | 18.89678 | -70.73915 | 5514 ft | 176 kts | 117° |
| 2026-04-25 20:37 | 18.89200 | -70.72842 | 5363 ft | 149 kts | 115° |
| 2026-04-25 20:37 | 18.88828 | -70.71857 | 5244 ft | 144 kts | 110° |
| 2026-04-25 20:37 | 18.88553 | -70.70882 | 5164 ft | 137 kts | 104° |
| 2026-04-25 20:38 | 18.88431 | -70.69940 | 5065 ft | 126 kts | 76° |
| 2026-04-25 20:38 | 18.89029 | -70.69294 | 4831 ft | 132 kts | 17° |
| 2026-04-25 20:38 | 18.89888 | -70.69452 | 4538 ft | 129 kts | 328° |
| 2026-04-25 20:38 | 18.90585 | -70.70010 | 4220 ft | 116 kts | 317° |
| 2026-04-25 20:39 | 18.90848 | -70.70714 | 3975 ft | 105 kts | 270° |
| 2026-04-25 20:39 | 18.90808 | -70.71449 | 3845 ft | 86 kts | 265° |
| 2026-04-25 20:39 | 18.90777 | -70.71852 | 3830 ft | 27 kts | 262° |
| 2026-04-25 20:39 | 18.90771 | -70.71912 | 3827 ft | 25 kts | 268° |
| 2026-04-25 20:40 | 18.90770 | -70.72117 | 3816 ft | 9 kts | 311° |
| 2026-04-25 20:40 | 18.90804 | -70.72149 | 3818 ft | 4 kts | 329° |
| 2026-04-25 20:40 | 18.90802 | -70.72184 | 3814 ft | 4 kts | 205° |
| 2026-04-25 20:40 | 18.90785 | -70.72180 | 3814 ft | 0 kts | 108° |
| 2026-04-25 20:41 | 18.90787 | -70.72169 | 3818 ft | 0 kts | 79° |